sensor_id;sensor_type;location;lat;lon;timestamp;P1;durP1;ratioP1;P2;durP2;ratioP2
7737;SDS011;29398;45.328;5.558;2023-04-01T00:00:37;5.68;;;2.42;;
7737;SDS011;29398;45.328;5.558;2023-04-01T00:01:42;6.75;;;2.42;;
7737;SDS011;29398;45.328;5.558;2023-04-01T00:02:43;7.35;;;3.15;;
7737;SDS011;29398;45.328;5.558;2023-04-01T00:03:45;5.55;;;2.17;;
7737;SDS011;29398;45.328;5.558;2023-04-01T00:04:47;7.25;;;2.53;;
7737;SDS011;29398;45.328;5.558;2023-04-01T00:05:49;6.55;;;2.47;;
7737;SDS011;29398;45.328;5.558;2023-04-01T00:06:50;5.82;;;2.35;;
7737;SDS011;29398;45.328;5.558;2023-04-01T00:07:53;6.20;;;2.63;;
7737;SDS011;29398;45.328;5.558;2023-04-01T00:08:54;7.38;;;2.60;;
7737;SDS011;29398;45.328;5.558;2023-04-01T00:09:56;5.25;;;2.30;;
7737;SDS011;29398;45.328;5.558;2023-04-01T00:10:57;6.50;;;2.40;;
7737;SDS011;29398;45.328;5.558;2023-04-01T00:12:00;7.10;;;2.80;;
7737;SDS011;29398;45.328;5.558;2023-04-01T00:13:02;9.40;;;2.40;;
7737;SDS011;29398;45.328;5.558;2023-04-01T00:14:05;6.78;;;3.20;;
7737;SDS011;29398;45.328;5.558;2023-04-01T00:15:08;7.22;;;3.13;;
7737;SDS011;29398;45.328;5.558;2023-04-01T00:16:11;10.65;;;4.00;;
7737;SDS011;29398;45.328;5.558;2023-04-01T00:17:12;8.68;;;4.05;;
7737;SDS011;29398;45.328;5.558;2023-04-01T00:18:15;7.65;;;3.92;;
7737;SDS011;29398;45.328;5.558;2023-04-01T00:19:16;6.18;;;3.45;;
7737;SDS011;29398;45.328;5.558;2023-04-01T00:20:18;8.40;;;4.15;;
7737;SDS011;29398;45.328;5.558;2023-04-01T00:21:19;7.80;;;2.67;;
7737;SDS011;29398;45.328;5.558;2023-04-01T00:22:22;6.10;;;3.20;;
7737;SDS011;29398;45.328;5.558;2023-04-01T00:23:23;7.03;;;2.58;;
7737;SDS011;29398;45.328;5.558;2023-04-01T00:24:25;7.20;;;2.67;;
7737;SDS011;29398;45.328;5.558;2023-04-01T00:25:26;8.07;;;2.85;;
7737;SDS011;29398;45.328;5.558;2023-04-01T00:26:29;7.10;;;2.47;;
7737;SDS011;29398;45.328;5.558;2023-04-01T00:27:30;7.18;;;2.95;;
7737;SDS011;29398;45.328;5.558;2023-04-01T00:28:34;7.07;;;2.72;;
7737;SDS011;29398;45.328;5.558;2023-04-01T00:29:36;9.27;;;3.50;;
7737;SDS011;29398;45.328;5.558;2023-04-01T00:30:38;7.10;;;2.80;;
7737;SDS011;29398;45.328;5.558;2023-04-01T00:31:39;10.00;;;3.70;;
7737;SDS011;29398;45.328;5.558;2023-04-01T00:32:41;8.07;;;3.55;;
7737;SDS011;29398;45.328;5.558;2023-04-01T00:33:42;7.20;;;3.58;;
7737;SDS011;29398;45.328;5.558;2023-04-01T00:34:44;9.57;;;3.63;;
7737;SDS011;29398;45.328;5.558;2023-04-01T00:35:46;10.45;;;3.40;;
7737;SDS011;29398;45.328;5.558;2023-04-01T00:36:48;6.50;;;3.20;;
7737;SDS011;29398;45.328;5.558;2023-04-01T00:37:50;7.90;;;3.13;;
7737;SDS011;29398;45.328;5.558;2023-04-01T00:38:52;6.60;;;2.95;;
7737;SDS011;29398;45.328;5.558;2023-04-01T00:39:53;5.38;;;3.40;;
7737;SDS011;29398;45.328;5.558;2023-04-01T00:40:57;7.10;;;3.50;;
7737;SDS011;29398;45.328;5.558;2023-04-01T00:41:58;6.95;;;3.30;;
7737;SDS011;29398;45.328;5.558;2023-04-01T00:43:01;9.23;;;3.88;;
7737;SDS011;29398;45.328;5.558;2023-04-01T00:44:15;6.80;;;3.33;;
7737;SDS011;29398;45.328;5.558;2023-04-01T00:45:30;7.35;;;3.50;;
7737;SDS011;29398;45.328;5.558;2023-04-01T00:46:33;8.35;;;4.30;;
7737;SDS011;29398;45.328;5.558;2023-04-01T00:47:35;11.85;;;4.53;;
7737;SDS011;29398;45.328;5.558;2023-04-01T00:48:38;7.10;;;4.32;;
7737;SDS011;29398;45.328;5.558;2023-04-01T00:49:43;9.05;;;4.70;;
7737;SDS011;29398;45.328;5.558;2023-04-01T00:50:47;8.65;;;4.18;;
7737;SDS011;29398;45.328;5.558;2023-04-01T00:51:53;7.97;;;4.30;;
7737;SDS011;29398;45.328;5.558;2023-04-01T00:52:58;10.27;;;3.97;;
7737;SDS011;29398;45.328;5.558;2023-04-01T00:54:01;7.20;;;3.80;;
7737;SDS011;29398;45.328;5.558;2023-04-01T00:55:04;6.85;;;3.15;;
7737;SDS011;29398;45.328;5.558;2023-04-01T00:56:09;8.27;;;3.80;;
7737;SDS011;29398;45.328;5.558;2023-04-01T00:57:15;6.97;;;3.13;;
7737;SDS011;29398;45.328;5.558;2023-04-01T00:58:21;8.77;;;3.33;;
7737;SDS011;29398;45.328;5.558;2023-04-01T00:59:26;7.63;;;3.05;;
7737;SDS011;29398;45.328;5.558;2023-04-01T01:00:31;6.75;;;3.17;;
7737;SDS011;29398;45.328;5.558;2023-04-01T01:01:33;7.30;;;2.72;;
7737;SDS011;29398;45.328;5.558;2023-04-01T01:02:37;6.38;;;2.63;;
7737;SDS011;29398;45.328;5.558;2023-04-01T01:03:41;6.45;;;2.97;;
7737;SDS011;29398;45.328;5.558;2023-04-01T01:04:43;8.98;;;2.75;;
7737;SDS011;29398;45.328;5.558;2023-04-01T01:07:26;6.55;;;3.10;;
7737;SDS011;29398;45.328;5.558;2023-04-01T01:08:40;6.13;;;2.80;;
7737;SDS011;29398;45.328;5.558;2023-04-01T01:09:55;6.25;;;3.20;;
7737;SDS011;29398;45.328;5.558;2023-04-01T01:11:02;10.75;;;3.92;;
7737;SDS011;29398;45.328;5.558;2023-04-01T01:12:07;11.88;;;5.00;;
7737;SDS011;29398;45.328;5.558;2023-04-01T01:13:14;9.40;;;4.38;;
7737;SDS011;29398;45.328;5.558;2023-04-01T01:14:31;12.32;;;4.65;;
7737;SDS011;29398;45.328;5.558;2023-04-01T01:15:41;13.63;;;6.28;;
7737;SDS011;29398;45.328;5.558;2023-04-01T01:16:48;10.90;;;5.90;;
7737;SDS011;29398;45.328;5.558;2023-04-01T01:17:56;13.25;;;5.57;;
7737;SDS011;29398;45.328;5.558;2023-04-01T01:19:05;11.77;;;4.97;;
7737;SDS011;29398;45.328;5.558;2023-04-01T01:21:42;11.70;;;4.10;;
7737;SDS011;29398;45.328;5.558;2023-04-01T01:22:57;5.85;;;3.60;;
7737;SDS011;29398;45.328;5.558;2023-04-01T01:24:37;6.72;;;3.20;;
7737;SDS011;29398;45.328;5.558;2023-04-01T01:25:47;9.80;;;3.35;;
7737;SDS011;29398;45.328;5.558;2023-04-01T01:27:00;7.82;;;3.47;;
7737;SDS011;29398;45.328;5.558;2023-04-01T01:28:10;9.27;;;3.47;;
7737;SDS011;29398;45.328;5.558;2023-04-01T01:29:33;9.95;;;3.55;;
7737;SDS011;29398;45.328;5.558;2023-04-01T01:30:48;11.10;;;3.83;;
7737;SDS011;29398;45.328;5.558;2023-04-01T01:32:00;13.48;;;4.20;;
7737;SDS011;29398;45.328;5.558;2023-04-01T01:33:11;9.00;;;4.45;;
7737;SDS011;29398;45.328;5.558;2023-04-01T01:34:20;12.60;;;4.40;;
7737;SDS011;29398;45.328;5.558;2023-04-01T01:35:30;12.73;;;4.95;;
7737;SDS011;29398;45.328;5.558;2023-04-01T01:36:41;7.93;;;3.70;;
7737;SDS011;29398;45.328;5.558;2023-04-01T01:37:46;7.63;;;3.72;;
7737;SDS011;29398;45.328;5.558;2023-04-01T01:38:49;6.90;;;3.08;;
7737;SDS011;29398;45.328;5.558;2023-04-01T01:39:52;6.93;;;3.10;;
7737;SDS011;29398;45.328;5.558;2023-04-01T01:40:57;9.55;;;3.72;;
7737;SDS011;29398;45.328;5.558;2023-04-01T01:42:01;8.02;;;3.28;;
7737;SDS011;29398;45.328;5.558;2023-04-01T01:43:08;7.30;;;2.97;;
7737;SDS011;29398;45.328;5.558;2023-04-01T01:44:12;6.68;;;3.10;;
7737;SDS011;29398;45.328;5.558;2023-04-01T01:45:16;8.27;;;3.58;;
7737;SDS011;29398;45.328;5.558;2023-04-01T01:46:21;8.95;;;3.45;;
7737;SDS011;29398;45.328;5.558;2023-04-01T01:47:26;6.68;;;2.90;;
7737;SDS011;29398;45.328;5.558;2023-04-01T01:48:29;11.27;;;4.40;;
7737;SDS011;29398;45.328;5.558;2023-04-01T01:49:34;8.60;;;4.10;;
7737;SDS011;29398;45.328;5.558;2023-04-01T01:50:38;8.25;;;4.22;;
7737;SDS011;29398;45.328;5.558;2023-04-01T01:51:44;13.32;;;5.18;;
7737;SDS011;29398;45.328;5.558;2023-04-01T01:52:46;13.13;;;5.32;;
7737;SDS011;29398;45.328;5.558;2023-04-01T01:53:49;14.05;;;5.85;;
7737;SDS011;29398;45.328;5.558;2023-04-01T01:54:52;14.02;;;5.65;;
7737;SDS011;29398;45.328;5.558;2023-04-01T01:55:58;10.75;;;4.07;;
7737;SDS011;29398;45.328;5.558;2023-04-01T01:57:01;9.38;;;3.58;;
7737;SDS011;29398;45.328;5.558;2023-04-01T01:58:10;7.07;;;3.17;;
7737;SDS011;29398;45.328;5.558;2023-04-01T01:59:16;6.00;;;3.05;;
7737;SDS011;29398;45.328;5.558;2023-04-01T02:00:22;10.27;;;3.90;;
7737;SDS011;29398;45.328;5.558;2023-04-01T02:01:24;7.30;;;3.42;;
7737;SDS011;29398;45.328;5.558;2023-04-01T02:02:30;8.52;;;3.35;;
7737;SDS011;29398;45.328;5.558;2023-04-01T02:03:33;7.55;;;3.25;;
7737;SDS011;29398;45.328;5.558;2023-04-01T02:04:37;7.13;;;3.33;;
7737;SDS011;29398;45.328;5.558;2023-04-01T02:05:42;8.02;;;3.13;;
7737;SDS011;29398;45.328;5.558;2023-04-01T02:06:46;7.35;;;2.90;;
7737;SDS011;29398;45.328;5.558;2023-04-01T02:07:54;7.72;;;3.58;;
7737;SDS011;29398;45.328;5.558;2023-04-01T02:09:03;8.35;;;3.38;;
7737;SDS011;29398;45.328;5.558;2023-04-01T02:10:07;7.32;;;3.30;;
7737;SDS011;29398;45.328;5.558;2023-04-01T02:11:11;8.10;;;3.35;;
7737;SDS011;29398;45.328;5.558;2023-04-01T02:12:16;10.13;;;3.55;;
7737;SDS011;29398;45.328;5.558;2023-04-01T02:13:20;5.82;;;3.42;;
7737;SDS011;29398;45.328;5.558;2023-04-01T02:14:28;7.32;;;2.85;;
7737;SDS011;29398;45.328;5.558;2023-04-01T02:15:41;7.15;;;3.05;;
7737;SDS011;29398;45.328;5.558;2023-04-01T02:16:48;9.70;;;3.38;;
7737;SDS011;29398;45.328;5.558;2023-04-01T02:17:54;5.68;;;2.60;;
7737;SDS011;29398;45.328;5.558;2023-04-01T02:18:57;7.28;;;2.88;;
7737;SDS011;29398;45.328;5.558;2023-04-01T02:20:01;5.93;;;2.83;;
7737;SDS011;29398;45.328;5.558;2023-04-01T02:21:08;6.32;;;3.10;;
7737;SDS011;29398;45.328;5.558;2023-04-01T02:22:12;5.35;;;2.85;;
7737;SDS011;29398;45.328;5.558;2023-04-01T02:23:17;6.85;;;2.80;;
7737;SDS011;29398;45.328;5.558;2023-04-01T02:24:19;7.28;;;3.33;;
7737;SDS011;29398;45.328;5.558;2023-04-01T02:25:25;7.25;;;3.22;;
7737;SDS011;29398;45.328;5.558;2023-04-01T02:26:30;7.50;;;3.03;;
7737;SDS011;29398;45.328;5.558;2023-04-01T02:27:31;8.65;;;3.17;;
7737;SDS011;29398;45.328;5.558;2023-04-01T02:28:34;8.52;;;3.60;;
7737;SDS011;29398;45.328;5.558;2023-04-01T02:29:37;7.63;;;3.20;;
7737;SDS011;29398;45.328;5.558;2023-04-01T02:30:41;6.30;;;2.95;;
7737;SDS011;29398;45.328;5.558;2023-04-01T02:31:44;8.35;;;3.50;;
7737;SDS011;29398;45.328;5.558;2023-04-01T02:32:47;6.93;;;3.10;;
7737;SDS011;29398;45.328;5.558;2023-04-01T02:33:49;6.20;;;3.30;;
7737;SDS011;29398;45.328;5.558;2023-04-01T02:34:51;6.05;;;2.75;;
7737;SDS011;29398;45.328;5.558;2023-04-01T02:35:52;7.65;;;3.10;;
7737;SDS011;29398;45.328;5.558;2023-04-01T02:36:56;5.05;;;2.70;;
7737;SDS011;29398;45.328;5.558;2023-04-01T02:37:57;7.50;;;2.70;;
7737;SDS011;29398;45.328;5.558;2023-04-01T02:39:00;9.15;;;3.22;;
7737;SDS011;29398;45.328;5.558;2023-04-01T02:40:05;5.05;;;2.30;;
7737;SDS011;29398;45.328;5.558;2023-04-01T02:41:08;6.65;;;2.60;;
7737;SDS011;29398;45.328;5.558;2023-04-01T02:42:09;8.88;;;3.00;;
7737;SDS011;29398;45.328;5.558;2023-04-01T02:43:12;6.95;;;2.92;;
7737;SDS011;29398;45.328;5.558;2023-04-01T02:44:13;8.50;;;2.60;;
7737;SDS011;29398;45.328;5.558;2023-04-01T02:45:17;5.22;;;2.20;;
7737;SDS011;29398;45.328;5.558;2023-04-01T02:46:19;4.65;;;2.50;;
7737;SDS011;29398;45.328;5.558;2023-04-01T02:47:20;7.68;;;2.92;;
7737;SDS011;29398;45.328;5.558;2023-04-01T02:48:22;7.13;;;3.03;;
7737;SDS011;29398;45.328;5.558;2023-04-01T02:49:24;6.20;;;2.58;;
7737;SDS011;29398;45.328;5.558;2023-04-01T02:50:25;5.38;;;2.72;;
7737;SDS011;29398;45.328;5.558;2023-04-01T02:51:27;10.73;;;2.85;;
7737;SDS011;29398;45.328;5.558;2023-04-01T02:52:29;5.97;;;2.70;;
7737;SDS011;29398;45.328;5.558;2023-04-01T02:53:35;5.55;;;2.50;;
7737;SDS011;29398;45.328;5.558;2023-04-01T02:54:36;8.88;;;2.47;;
7737;SDS011;29398;45.328;5.558;2023-04-01T02:55:38;7.28;;;2.60;;
7737;SDS011;29398;45.328;5.558;2023-04-01T02:56:40;5.70;;;2.25;;
7737;SDS011;29398;45.328;5.558;2023-04-01T02:57:41;5.07;;;2.53;;
7737;SDS011;29398;45.328;5.558;2023-04-01T02:58:43;10.55;;;2.67;;
7737;SDS011;29398;45.328;5.558;2023-04-01T02:59:45;5.68;;;2.10;;
7737;SDS011;29398;45.328;5.558;2023-04-01T03:00:47;6.25;;;2.47;;
7737;SDS011;29398;45.328;5.558;2023-04-01T03:01:48;5.45;;;2.10;;
7737;SDS011;29398;45.328;5.558;2023-04-01T03:02:50;12.15;;;2.90;;
7737;SDS011;29398;45.328;5.558;2023-04-01T03:03:51;7.22;;;2.53;;
7737;SDS011;29398;45.328;5.558;2023-04-01T03:04:53;8.10;;;2.63;;
7737;SDS011;29398;45.328;5.558;2023-04-01T03:05:54;6.28;;;2.65;;
7737;SDS011;29398;45.328;5.558;2023-04-01T03:06:58;7.57;;;2.60;;
7737;SDS011;29398;45.328;5.558;2023-04-01T03:08:01;6.72;;;2.05;;
7737;SDS011;29398;45.328;5.558;2023-04-01T03:09:03;5.72;;;2.40;;
7737;SDS011;29398;45.328;5.558;2023-04-01T03:10:05;5.65;;;2.20;;
7737;SDS011;29398;45.328;5.558;2023-04-01T03:11:08;5.32;;;2.20;;
7737;SDS011;29398;45.328;5.558;2023-04-01T03:12:11;5.78;;;2.50;;
7737;SDS011;29398;45.328;5.558;2023-04-01T03:13:23;6.68;;;2.20;;
7737;SDS011;29398;45.328;5.558;2023-04-01T03:14:24;8.73;;;2.60;;
7737;SDS011;29398;45.328;5.558;2023-04-01T03:15:26;5.78;;;1.73;;
7737;SDS011;29398;45.328;5.558;2023-04-01T03:16:28;6.28;;;1.80;;
7737;SDS011;29398;45.328;5.558;2023-04-01T03:17:30;6.18;;;2.10;;
7737;SDS011;29398;45.328;5.558;2023-04-01T03:18:31;5.72;;;2.10;;
7737;SDS011;29398;45.328;5.558;2023-04-01T03:19:33;5.32;;;2.05;;
7737;SDS011;29398;45.328;5.558;2023-04-01T03:20:39;7.18;;;2.25;;
7737;SDS011;29398;45.328;5.558;2023-04-01T03:21:41;5.72;;;2.28;;
7737;SDS011;29398;45.328;5.558;2023-04-01T03:22:42;7.65;;;2.40;;
7737;SDS011;29398;45.328;5.558;2023-04-01T03:23:47;8.32;;;2.10;;
7737;SDS011;29398;45.328;5.558;2023-04-01T03:24:48;5.70;;;2.70;;
7737;SDS011;29398;45.328;5.558;2023-04-01T03:25:51;7.93;;;2.65;;
7737;SDS011;29398;45.328;5.558;2023-04-01T03:26:52;6.85;;;1.98;;
7737;SDS011;29398;45.328;5.558;2023-04-01T03:27:54;6.85;;;2.38;;
7737;SDS011;29398;45.328;5.558;2023-04-01T03:28:55;5.47;;;2.40;;
7737;SDS011;29398;45.328;5.558;2023-04-01T03:29:57;5.10;;;2.17;;
7737;SDS011;29398;45.328;5.558;2023-04-01T03:31:00;6.90;;;2.28;;
7737;SDS011;29398;45.328;5.558;2023-04-01T03:32:03;8.70;;;2.88;;
7737;SDS011;29398;45.328;5.558;2023-04-01T03:33:04;5.93;;;2.47;;
7737;SDS011;29398;45.328;5.558;2023-04-01T03:34:06;4.63;;;2.33;;
7737;SDS011;29398;45.328;5.558;2023-04-01T03:35:08;6.07;;;2.53;;
7737;SDS011;29398;45.328;5.558;2023-04-01T03:36:11;4.50;;;2.30;;
7737;SDS011;29398;45.328;5.558;2023-04-01T03:37:13;7.70;;;3.08;;
7737;SDS011;29398;45.328;5.558;2023-04-01T03:38:15;5.90;;;2.70;;
7737;SDS011;29398;45.328;5.558;2023-04-01T03:39:17;7.70;;;2.60;;
7737;SDS011;29398;45.328;5.558;2023-04-01T03:40:20;8.23;;;2.33;;
7737;SDS011;29398;45.328;5.558;2023-04-01T03:41:21;6.65;;;2.20;;
7737;SDS011;29398;45.328;5.558;2023-04-01T03:42:23;7.18;;;2.28;;
7737;SDS011;29398;45.328;5.558;2023-04-01T03:43:24;7.07;;;2.15;;
7737;SDS011;29398;45.328;5.558;2023-04-01T03:44:30;6.55;;;2.20;;
7737;SDS011;29398;45.328;5.558;2023-04-01T03:45:32;6.90;;;2.20;;
7737;SDS011;29398;45.328;5.558;2023-04-01T03:46:33;5.10;;;2.33;;
7737;SDS011;29398;45.328;5.558;2023-04-01T03:47:36;7.35;;;2.17;;
7737;SDS011;29398;45.328;5.558;2023-04-01T03:48:37;8.45;;;2.60;;
7737;SDS011;29398;45.328;5.558;2023-04-01T03:49:39;5.28;;;2.22;;
7737;SDS011;29398;45.328;5.558;2023-04-01T03:50:40;6.38;;;2.10;;
7737;SDS011;29398;45.328;5.558;2023-04-01T03:51:43;7.82;;;2.22;;
7737;SDS011;29398;45.328;5.558;2023-04-01T03:52:45;7.22;;;2.10;;
7737;SDS011;29398;45.328;5.558;2023-04-01T03:53:47;6.32;;;1.90;;
7737;SDS011;29398;45.328;5.558;2023-04-01T03:54:50;4.70;;;2.38;;
7737;SDS011;29398;45.328;5.558;2023-04-01T03:55:52;7.05;;;2.30;;
7737;SDS011;29398;45.328;5.558;2023-04-01T03:56:54;5.93;;;2.30;;
7737;SDS011;29398;45.328;5.558;2023-04-01T03:57:58;4.18;;;2.50;;
7737;SDS011;29398;45.328;5.558;2023-04-01T03:59:01;5.07;;;2.08;;
7737;SDS011;29398;45.328;5.558;2023-04-01T04:00:04;5.03;;;2.17;;
7737;SDS011;29398;45.328;5.558;2023-04-01T04:01:15;6.85;;;2.10;;
7737;SDS011;29398;45.328;5.558;2023-04-01T04:02:19;6.68;;;2.80;;
7737;SDS011;29398;45.328;5.558;2023-04-01T04:03:20;5.38;;;2.13;;
7737;SDS011;29398;45.328;5.558;2023-04-01T04:04:22;4.75;;;2.20;;
7737;SDS011;29398;45.328;5.558;2023-04-01T04:05:23;6.50;;;2.28;;
7737;SDS011;29398;45.328;5.558;2023-04-01T04:06:26;9.82;;;2.20;;
7737;SDS011;29398;45.328;5.558;2023-04-01T04:07:27;6.38;;;2.47;;
7737;SDS011;29398;45.328;5.558;2023-04-01T04:08:36;5.75;;;2.00;;
7737;SDS011;29398;45.328;5.558;2023-04-01T04:09:37;5.93;;;2.25;;
7737;SDS011;29398;45.328;5.558;2023-04-01T04:10:40;6.32;;;1.98;;
7737;SDS011;29398;45.328;5.558;2023-04-01T04:11:42;7.20;;;2.20;;
7737;SDS011;29398;45.328;5.558;2023-04-01T04:12:44;7.93;;;2.05;;
7737;SDS011;29398;45.328;5.558;2023-04-01T04:13:45;6.25;;;2.28;;
7737;SDS011;29398;45.328;5.558;2023-04-01T04:14:49;7.38;;;1.95;;
7737;SDS011;29398;45.328;5.558;2023-04-01T04:15:50;5.82;;;2.13;;
7737;SDS011;29398;45.328;5.558;2023-04-01T04:16:52;5.30;;;1.90;;
7737;SDS011;29398;45.328;5.558;2023-04-01T04:17:53;8.43;;;1.83;;
7737;SDS011;29398;45.328;5.558;2023-04-01T04:18:55;5.47;;;2.10;;
7737;SDS011;29398;45.328;5.558;2023-04-01T04:19:57;6.78;;;1.88;;
7737;SDS011;29398;45.328;5.558;2023-04-01T04:20:59;5.13;;;1.95;;
7737;SDS011;29398;45.328;5.558;2023-04-01T04:22:00;6.55;;;2.25;;
7737;SDS011;29398;45.328;5.558;2023-04-01T04:23:03;6.47;;;2.20;;
7737;SDS011;29398;45.328;5.558;2023-04-01T04:24:05;6.75;;;2.03;;
7737;SDS011;29398;45.328;5.558;2023-04-01T04:25:27;6.80;;;2.08;;
7737;SDS011;29398;45.328;5.558;2023-04-01T04:26:30;4.00;;;1.90;;
7737;SDS011;29398;45.328;5.558;2023-04-01T04:27:34;4.32;;;2.00;;
7737;SDS011;29398;45.328;5.558;2023-04-01T04:28:46;5.65;;;2.10;;
7737;SDS011;29398;45.328;5.558;2023-04-01T04:29:49;6.45;;;2.33;;
7737;SDS011;29398;45.328;5.558;2023-04-01T04:30:50;5.40;;;1.77;;
7737;SDS011;29398;45.328;5.558;2023-04-01T04:31:54;5.00;;;2.28;;
7737;SDS011;29398;45.328;5.558;2023-04-01T04:32:55;8.43;;;2.42;;
7737;SDS011;29398;45.328;5.558;2023-04-01T04:33:58;5.68;;;1.80;;
7737;SDS011;29398;45.328;5.558;2023-04-01T04:35:00;6.15;;;2.28;;
7737;SDS011;29398;45.328;5.558;2023-04-01T04:36:02;7.65;;;2.35;;
7737;SDS011;29398;45.328;5.558;2023-04-01T04:37:04;5.68;;;1.80;;
7737;SDS011;29398;45.328;5.558;2023-04-01T04:38:09;5.28;;;2.15;;
7737;SDS011;29398;45.328;5.558;2023-04-01T04:39:10;9.23;;;3.03;;
7737;SDS011;29398;45.328;5.558;2023-04-01T04:40:14;6.10;;;2.00;;
7737;SDS011;29398;45.328;5.558;2023-04-01T04:41:17;5.57;;;2.17;;
7737;SDS011;29398;45.328;5.558;2023-04-01T04:42:24;11.05;;;2.25;;
7737;SDS011;29398;45.328;5.558;2023-04-01T04:43:29;5.60;;;2.05;;
7737;SDS011;29398;45.328;5.558;2023-04-01T04:44:32;6.43;;;2.10;;
7737;SDS011;29398;45.328;5.558;2023-04-01T04:45:34;5.72;;;1.85;;
7737;SDS011;29398;45.328;5.558;2023-04-01T04:46:37;6.82;;;2.38;;
7737;SDS011;29398;45.328;5.558;2023-04-01T04:47:48;9.63;;;2.10;;
7737;SDS011;29398;45.328;5.558;2023-04-01T04:48:51;6.75;;;2.20;;
7737;SDS011;29398;45.328;5.558;2023-04-01T04:49:52;6.28;;;2.35;;
7737;SDS011;29398;45.328;5.558;2023-04-01T04:50:54;4.93;;;2.30;;
7737;SDS011;29398;45.328;5.558;2023-04-01T04:51:57;5.57;;;2.78;;
7737;SDS011;29398;45.328;5.558;2023-04-01T04:53:01;6.20;;;2.20;;
7737;SDS011;29398;45.328;5.558;2023-04-01T04:54:05;6.18;;;2.03;;
7737;SDS011;29398;45.328;5.558;2023-04-01T04:55:26;8.85;;;2.55;;
7737;SDS011;29398;45.328;5.558;2023-04-01T04:56:47;7.68;;;2.65;;
7737;SDS011;29398;45.328;5.558;2023-04-01T04:57:51;5.32;;;2.10;;
7737;SDS011;29398;45.328;5.558;2023-04-01T04:58:53;5.15;;;1.88;;
7737;SDS011;29398;45.328;5.558;2023-04-01T04:59:59;5.82;;;2.22;;
7737;SDS011;29398;45.328;5.558;2023-04-01T05:01:14;7.65;;;2.30;;
7737;SDS011;29398;45.328;5.558;2023-04-01T05:02:18;7.50;;;2.38;;
7737;SDS011;29398;45.328;5.558;2023-04-01T05:03:19;6.22;;;2.45;;
7737;SDS011;29398;45.328;5.558;2023-04-01T05:04:21;6.38;;;2.42;;
7737;SDS011;29398;45.328;5.558;2023-04-01T05:05:22;10.10;;;2.60;;
7737;SDS011;29398;45.328;5.558;2023-04-01T05:06:24;6.10;;;2.15;;
7737;SDS011;29398;45.328;5.558;2023-04-01T05:07:26;5.15;;;2.38;;
7737;SDS011;29398;45.328;5.558;2023-04-01T05:08:28;6.70;;;1.90;;
7737;SDS011;29398;45.328;5.558;2023-04-01T05:09:30;5.97;;;2.72;;
7737;SDS011;29398;45.328;5.558;2023-04-01T05:10:32;7.05;;;2.47;;
7737;SDS011;29398;45.328;5.558;2023-04-01T05:11:34;7.25;;;2.58;;
7737;SDS011;29398;45.328;5.558;2023-04-01T05:12:36;6.57;;;2.60;;
7737;SDS011;29398;45.328;5.558;2023-04-01T05:13:42;6.30;;;2.70;;
7737;SDS011;29398;45.328;5.558;2023-04-01T05:14:45;5.07;;;2.15;;
7737;SDS011;29398;45.328;5.558;2023-04-01T05:15:46;5.38;;;2.40;;
7737;SDS011;29398;45.328;5.558;2023-04-01T05:16:48;6.38;;;2.00;;
7737;SDS011;29398;45.328;5.558;2023-04-01T05:17:50;12.13;;;2.88;;
7737;SDS011;29398;45.328;5.558;2023-04-01T05:18:51;7.32;;;2.33;;
7737;SDS011;29398;45.328;5.558;2023-04-01T05:19:54;4.18;;;2.17;;
7737;SDS011;29398;45.328;5.558;2023-04-01T05:20:55;6.35;;;2.60;;
7737;SDS011;29398;45.328;5.558;2023-04-01T05:21:57;6.00;;;2.35;;
7737;SDS011;29398;45.328;5.558;2023-04-01T05:22:58;5.90;;;2.50;;
7737;SDS011;29398;45.328;5.558;2023-04-01T05:24:01;7.57;;;2.58;;
7737;SDS011;29398;45.328;5.558;2023-04-01T05:25:04;5.82;;;2.33;;
7737;SDS011;29398;45.328;5.558;2023-04-01T05:26:07;5.45;;;2.60;;
7737;SDS011;29398;45.328;5.558;2023-04-01T05:27:09;5.55;;;2.38;;
7737;SDS011;29398;45.328;5.558;2023-04-01T05:28:13;7.53;;;3.00;;
7737;SDS011;29398;45.328;5.558;2023-04-01T05:29:17;5.95;;;2.50;;
7737;SDS011;29398;45.328;5.558;2023-04-01T05:30:28;6.28;;;2.60;;
7737;SDS011;29398;45.328;5.558;2023-04-01T05:31:41;6.60;;;2.55;;
7737;SDS011;29398;45.328;5.558;2023-04-01T05:32:43;5.85;;;2.35;;
7737;SDS011;29398;45.328;5.558;2023-04-01T05:33:45;9.40;;;2.88;;
7737;SDS011;29398;45.328;5.558;2023-04-01T05:34:49;6.10;;;2.58;;
7737;SDS011;29398;45.328;5.558;2023-04-01T05:35:51;6.97;;;2.00;;
7737;SDS011;29398;45.328;5.558;2023-04-01T05:36:53;4.53;;;2.40;;
7737;SDS011;29398;45.328;5.558;2023-04-01T05:37:54;6.53;;;2.58;;
7737;SDS011;29398;45.328;5.558;2023-04-01T05:38:56;5.10;;;2.20;;
7737;SDS011;29398;45.328;5.558;2023-04-01T05:39:59;5.43;;;2.05;;
7737;SDS011;29398;45.328;5.558;2023-04-01T05:41:03;7.78;;;2.67;;
7737;SDS011;29398;45.328;5.558;2023-04-01T05:42:08;7.32;;;2.38;;
7737;SDS011;29398;45.328;5.558;2023-04-01T05:43:10;7.72;;;3.47;;
7737;SDS011;29398;45.328;5.558;2023-04-01T05:44:12;7.35;;;2.88;;
7737;SDS011;29398;45.328;5.558;2023-04-01T05:45:16;6.43;;;2.17;;
7737;SDS011;29398;45.328;5.558;2023-04-01T05:46:26;6.32;;;2.33;;
7737;SDS011;29398;45.328;5.558;2023-04-01T05:47:43;7.72;;;2.25;;
7737;SDS011;29398;45.328;5.558;2023-04-01T05:48:45;6.18;;;2.30;;
7737;SDS011;29398;45.328;5.558;2023-04-01T05:49:47;3.13;;;1.67;;
7737;SDS011;29398;45.328;5.558;2023-04-01T05:50:48;6.18;;;2.20;;
7737;SDS011;29398;45.328;5.558;2023-04-01T05:51:50;6.28;;;2.15;;
7737;SDS011;29398;45.328;5.558;2023-04-01T05:52:52;4.72;;;2.20;;
7737;SDS011;29398;45.328;5.558;2023-04-01T05:53:54;6.15;;;2.47;;
7737;SDS011;29398;45.328;5.558;2023-04-01T05:54:56;4.63;;;2.58;;
7737;SDS011;29398;45.328;5.558;2023-04-01T05:56:01;6.72;;;2.20;;
7737;SDS011;29398;45.328;5.558;2023-04-01T05:57:05;6.38;;;2.42;;
7737;SDS011;29398;45.328;5.558;2023-04-01T05:58:07;8.80;;;3.05;;
7737;SDS011;29398;45.328;5.558;2023-04-01T05:59:10;7.35;;;2.65;;
7737;SDS011;29398;45.328;5.558;2023-04-01T06:00:12;7.05;;;2.53;;
7737;SDS011;29398;45.328;5.558;2023-04-01T06:01:16;6.43;;;2.38;;
7737;SDS011;29398;45.328;5.558;2023-04-01T06:02:19;5.78;;;2.47;;
7737;SDS011;29398;45.328;5.558;2023-04-01T06:03:20;6.75;;;2.55;;
7737;SDS011;29398;45.328;5.558;2023-04-01T06:04:23;6.88;;;2.67;;
7737;SDS011;29398;45.328;5.558;2023-04-01T06:05:26;7.53;;;2.47;;
7737;SDS011;29398;45.328;5.558;2023-04-01T06:06:30;7.97;;;3.72;;
7737;SDS011;29398;45.328;5.558;2023-04-01T06:07:42;8.23;;;4.75;;
7737;SDS011;29398;45.328;5.558;2023-04-01T06:08:44;7.93;;;5.57;;
7737;SDS011;29398;45.328;5.558;2023-04-01T06:09:45;7.43;;;5.13;;
7737;SDS011;29398;45.328;5.558;2023-04-01T06:10:56;9.45;;;4.40;;
7737;SDS011;29398;45.328;5.558;2023-04-01T06:12:27;5.30;;;2.95;;
7737;SDS011;29398;45.328;5.558;2023-04-01T06:13:52;5.22;;;2.70;;
7737;SDS011;29398;45.328;5.558;2023-04-01T06:15:18;4.32;;;2.60;;
7737;SDS011;29398;45.328;5.558;2023-04-01T06:16:27;7.30;;;3.38;;
7737;SDS011;29398;45.328;5.558;2023-04-01T06:17:41;7.47;;;3.30;;
7737;SDS011;29398;45.328;5.558;2023-04-01T06:18:56;8.85;;;4.90;;
7737;SDS011;29398;45.328;5.558;2023-04-01T06:20:09;7.70;;;4.15;;
7737;SDS011;29398;45.328;5.558;2023-04-01T06:21:25;8.75;;;4.03;;
7737;SDS011;29398;45.328;5.558;2023-04-01T06:22:43;9.00;;;4.20;;
7737;SDS011;29398;45.328;5.558;2023-04-01T06:24:04;8.23;;;4.25;;
7737;SDS011;29398;45.328;5.558;2023-04-01T06:26:52;6.05;;;3.78;;
7737;SDS011;29398;45.328;5.558;2023-04-01T06:28:07;6.47;;;3.83;;
7737;SDS011;29398;45.328;5.558;2023-04-01T06:29:44;10.68;;;3.00;;
7737;SDS011;29398;45.328;5.558;2023-04-01T06:30:57;6.07;;;2.60;;
7737;SDS011;29398;45.328;5.558;2023-04-01T06:32:22;8.30;;;2.83;;
7737;SDS011;29398;45.328;5.558;2023-04-01T06:33:46;6.63;;;2.65;;
7737;SDS011;29398;45.328;5.558;2023-04-01T06:36:58;5.05;;;2.58;;
7737;SDS011;29398;45.328;5.558;2023-04-01T06:38:15;5.05;;;2.72;;
7737;SDS011;29398;45.328;5.558;2023-04-01T06:39:42;4.55;;;2.55;;
7737;SDS011;29398;45.328;5.558;2023-04-01T06:41:04;7.30;;;2.75;;
7737;SDS011;29398;45.328;5.558;2023-04-01T06:42:25;4.13;;;2.50;;
7737;SDS011;29398;45.328;5.558;2023-04-01T06:44:06;5.30;;;2.35;;